メインページ
METAR-TAF:

METAR-TAF

空港 :

イエローナイフ空港

イエローナイフ, ノースウェスト準州, カナダ

緯度: 62-28N, 経度: 114-27W, 海抜: 205m

現時点の気象観測

当レポートは26分前の19:00(UTC)に作成
北/北西の風 9kt、最大18ktの突風を伴う
気温 0°C
湿度 55%
気圧 1020 hPa
視程: 24.1km
高度3800ftの千切れ雲あり

METAR: CYZF 181900Z 33009G18KT 15SM BKN038 00/M08 A3012 RMK SC7 SLP217

時間: 13:26 (19:26 UTC)

予報

当レポートは1時間48分前の17:38(UTC)に作成
予報は18日の 18時(UTC)から 19日の 18時(UTC)まで有効
北西の風 12kt
視程: 10km
高度2000ftの雲は散在している
高度4000ftの千切れ雲あり
18日の 18時(UTC)から 19日の 06時(UTC)まで一時的に
視程: 6.4km
高度2000ftの曇り
小雪
19日の 0600時(UTC)から
北西の風 8kt
視程: 10km
高度1500ftの雲はほとんどない
高度3000ftの千切れ雲あり
19日の 13時(UTC)から 19日の 15時(UTC)まで徐々に
北西の風 10kt

TAF: CYZF 181738Z 1818/1918 32012KT P6SM SCT020 BKN040 TEMPO 1818/1906 4SM -SN OVC020 FM190600 32008KT P6SM FEW015 BKN030 BECMG 1913/1915 32010KT RMK NXT FCST BY 190000Z

4,000以上の空港の気象観測と天気予報(METAR報とTAF報)

利用可能な観測所は地図上に黄色い丸と赤い丸で示す。

丸の上にカーソルを重ねると観測所名を参照できる。

次にクリックすると気象観測と天気予報を参照できる。

マップの切り替え:黒色「×」印の緑ボタンをクリックして拡大、「-」印の緑ボタンをクリックして縮小、緑色の三角印をクリックして隣りの地図に切り替え


METAR-TAF: